createdAt,value
2023-02-27T00:00:20.713Z,7.53
2023-02-27T00:03:09.123Z,8.77
2023-02-27T00:05:38.134Z,7.18
2023-02-27T00:08:06.450Z,9.45
2023-02-27T00:10:35.349Z,8.35
2023-02-27T00:13:04.141Z,8.85
2023-02-27T00:15:33.044Z,10.40
2023-02-27T00:18:02.021Z,9.25
2023-02-27T00:20:32.382Z,10.27
2023-02-27T00:23:00.629Z,11.43
2023-02-27T00:25:29.396Z,11.35
2023-02-27T00:27:57.868Z,20.30
2023-02-27T00:30:27.079Z,15.63
2023-02-27T00:32:56.216Z,8.70
2023-02-27T00:35:25.212Z,10.90
2023-02-27T00:37:54.019Z,10.18
2023-02-27T00:40:25.851Z,10.05
2023-02-27T00:42:55.359Z,9.73
2023-02-27T00:45:25.556Z,9.15
2023-02-27T00:47:53.953Z,9.90
2023-02-27T00:50:22.614Z,16.02
2023-02-27T00:52:51.233Z,8.32
2023-02-27T00:55:19.872Z,11.32
2023-02-27T00:57:48.444Z,7.55
2023-02-27T01:00:17.656Z,10.38
2023-02-27T01:02:46.217Z,7.85
2023-02-27T01:05:15.653Z,6.07
2023-02-27T01:07:44.099Z,9.43
2023-02-27T01:10:13.670Z,6.55
2023-02-27T01:12:42.592Z,9.05
2023-02-27T01:15:12.247Z,8.10
2023-02-27T01:17:40.903Z,7.30
2023-02-27T01:20:12.275Z,7.45
2023-02-27T01:22:41.117Z,9.05
2023-02-27T01:25:10.934Z,12.00
2023-02-27T01:27:41.040Z,7.75
2023-02-27T01:30:11.999Z,10.10
2023-02-27T01:32:40.482Z,10.55
2023-02-27T01:35:10.119Z,9.93
2023-02-27T01:37:38.446Z,10.70
2023-02-27T01:40:08.558Z,11.27
2023-02-27T01:42:37.532Z,11.07
2023-02-27T01:45:12.464Z,10.15
2023-02-27T01:47:45.310Z,11.77
2023-02-27T01:50:15.102Z,16.15
2023-02-27T01:52:44.880Z,15.48
2023-02-27T01:55:15.360Z,26.67
2023-02-27T01:57:46.672Z,16.75
2023-02-27T02:00:17.858Z,14.50
2023-02-27T02:02:57.434Z,14.07
2023-02-27T02:05:26.917Z,9.90
2023-02-27T02:07:55.398Z,11.38
2023-02-27T02:10:25.326Z,9.05
2023-02-27T02:12:54.387Z,8.65
2023-02-27T02:15:31.919Z,7.18
2023-02-27T02:18:21.856Z,9.45
2023-02-27T02:21:23.134Z,8.07
2023-02-27T02:24:32.698Z,10.30
2023-02-27T02:27:19.414Z,9.00
2023-02-27T02:30:30.025Z,7.50
2023-02-27T02:33:25.311Z,7.63
2023-02-27T02:36:10.690Z,7.45
2023-02-27T02:39:01.362Z,7.70
2023-02-27T02:41:55.744Z,10.98
2023-02-27T02:44:45.814Z,10.25
2023-02-27T02:47:41.518Z,11.73
2023-02-27T02:50:25.310Z,13.43
2023-02-27T02:53:15.574Z,11.73
2023-02-27T02:56:13.880Z,15.52
2023-02-27T02:59:04.852Z,12.90
2023-02-27T03:01:36.420Z,12.55
2023-02-27T03:04:16.394Z,13.10
2023-02-27T03:06:59.520Z,11.70
2023-02-27T03:09:36.888Z,15.93
2023-02-27T03:12:13.136Z,8.27
2023-02-27T03:14:56.041Z,7.00
2023-02-27T03:18:03.799Z,8.57
2023-02-27T03:20:37.723Z,5.88
2023-02-27T03:23:15.665Z,9.95
2023-02-27T03:25:46.633Z,9.75
2023-02-27T03:28:22.331Z,7.45
2023-02-27T03:30:58.751Z,9.90
2023-02-27T03:33:35.785Z,11.40
2023-02-27T03:36:20.718Z,7.00
2023-02-27T03:39:10.755Z,8.82
2023-02-27T03:42:15.899Z,6.65
2023-02-27T03:45:24.214Z,11.18
2023-02-27T03:47:53.960Z,7.35
2023-02-27T03:50:22.935Z,6.85
2023-02-27T03:52:54.419Z,8.27
2023-02-27T03:55:48.214Z,7.32
2023-02-27T03:58:17.327Z,8.73
2023-02-27T04:00:46.738Z,6.65
2023-02-27T04:03:16.968Z,7.65
2023-02-27T04:05:46.490Z,7.78
2023-02-27T04:08:33.286Z,7.75
2023-02-27T04:11:28.617Z,7.25
2023-02-27T04:14:06.904Z,7.25
2023-02-27T04:17:10.169Z,7.40
2023-02-27T04:19:45.724Z,8.18
2023-02-27T04:22:47.347Z,5.40
2023-02-27T04:25:35.799Z,8.45
2023-02-27T04:28:49.545Z,6.10
2023-02-27T04:31:25.072Z,6.72
2023-02-27T04:34:10.509Z,6.10
2023-02-27T04:36:49.516Z,7.60
2023-02-27T04:39:23.166Z,9.02
2023-02-27T04:42:11.948Z,8.70
2023-02-27T04:44:43.030Z,9.00
2023-02-27T04:47:15.415Z,7.78
2023-02-27T04:49:54.686Z,7.43
2023-02-27T04:52:46.818Z,7.85
2023-02-27T04:55:26.313Z,7.32
2023-02-27T04:58:17.667Z,11.02
2023-02-27T05:00:50.956Z,10.57
2023-02-27T05:03:35.278Z,10.60
2023-02-27T05:06:04.070Z,8.32
2023-02-27T05:08:53.630Z,8.57
2023-02-27T05:11:31.820Z,8.13
2023-02-27T05:14:25.092Z,9.85
2023-02-27T05:17:08.743Z,7.53
2023-02-27T05:19:42.838Z,9.98
2023-02-27T05:23:09.342Z,8.48
2023-02-27T05:25:46.443Z,8.15
2023-02-27T05:28:24.030Z,10.25
2023-02-27T05:31:03.821Z,9.75
2023-02-27T05:33:54.885Z,9.18
2023-02-27T05:36:34.836Z,7.60
2023-02-27T05:39:08.707Z,11.00
2023-02-27T05:41:47.776Z,10.25
2023-02-27T05:44:46.993Z,9.35
2023-02-27T05:47:20.425Z,11.93
2023-02-27T05:49:53.166Z,14.27
2023-02-27T05:52:25.573Z,11.77
2023-02-27T05:55:01.026Z,10.48
2023-02-27T05:57:39.279Z,10.65
2023-02-27T06:00:20.114Z,10.40
2023-02-27T06:02:48.776Z,12.88
2023-02-27T06:05:19.925Z,10.40
2023-02-27T06:07:48.218Z,15.30
2023-02-27T06:10:19.619Z,12.93
2023-02-27T06:12:48.566Z,14.57
2023-02-27T06:15:18.870Z,13.77
2023-02-27T06:17:47.334Z,19.33
2023-02-27T06:20:16.275Z,16.40
2023-02-27T06:22:44.781Z,17.80
2023-02-27T06:25:13.470Z,19.65
2023-02-27T06:27:42.108Z,22.63
2023-02-27T06:30:11.624Z,23.90
2023-02-27T06:32:40.085Z,32.70
2023-02-27T06:35:10.502Z,45.40
2023-02-27T06:37:39.102Z,52.88
2023-02-27T06:40:12.137Z,45.63
2023-02-27T06:42:45.388Z,35.10
2023-02-27T06:45:15.676Z,24.90
2023-02-27T06:47:44.796Z,23.13
2023-02-27T06:50:14.442Z,15.73
2023-02-27T06:52:42.910Z,17.48
2023-02-27T06:55:12.110Z,15.15
2023-02-27T06:57:40.358Z,15.40
2023-02-27T07:00:12.669Z,16.05
2023-02-27T07:05:12.137Z,13.93
2023-02-27T07:07:40.933Z,15.70
2023-02-27T07:10:13.284Z,18.23
2023-02-27T07:12:41.849Z,12.95
2023-02-27T07:15:10.987Z,20.50
2023-02-27T07:17:39.577Z,14.88
2023-02-27T07:20:10.811Z,20.77
2023-02-27T07:22:41.048Z,17.77
2023-02-27T07:25:10.339Z,20.10
2023-02-27T07:27:38.884Z,17.52
2023-02-27T07:30:08.299Z,18.15
2023-02-27T07:32:36.527Z,18.13
2023-02-27T07:35:05.684Z,14.32
2023-02-27T07:37:33.935Z,16.40
2023-02-27T07:40:03.978Z,22.00
2023-02-27T07:42:32.419Z,21.35
2023-02-27T07:45:01.579Z,19.70
2023-02-27T07:47:30.602Z,16.60
2023-02-27T07:49:59.666Z,16.27
2023-02-27T07:52:28.025Z,14.63
2023-02-27T07:54:56.563Z,15.82
2023-02-27T07:57:24.895Z,14.95
2023-02-27T07:59:56.981Z,15.57
2023-02-27T08:02:25.403Z,13.02
2023-02-27T08:04:54.094Z,14.75
2023-02-27T08:07:22.411Z,12.95
2023-02-27T08:09:51.411Z,15.10
2023-02-27T08:12:20.018Z,14.57
2023-02-27T08:14:49.057Z,16.75
2023-02-27T08:17:17.359Z,16.08
2023-02-27T08:19:45.956Z,15.02
2023-02-27T08:22:14.407Z,12.32
2023-02-27T08:24:43.000Z,13.02
2023-02-27T08:27:11.280Z,31.20
2023-02-27T08:29:39.956Z,24.42
2023-02-27T08:32:08.256Z,19.38
2023-02-27T08:34:37.097Z,17.23
2023-02-27T08:37:05.479Z,16.95
2023-02-27T08:39:34.061Z,18.02
2023-02-27T08:42:02.405Z,16.73
2023-02-27T08:44:31.154Z,16.35
2023-02-27T08:46:59.487Z,14.52
2023-02-27T08:49:28.260Z,13.23
2023-02-27T08:51:56.562Z,14.77
2023-02-27T08:54:25.159Z,15.18
2023-02-27T08:56:53.624Z,13.07
2023-02-27T08:59:22.194Z,8.23
2023-02-27T09:01:50.674Z,11.48
2023-02-27T09:04:21.094Z,9.20
2023-02-27T09:06:49.368Z,10.18
2023-02-27T09:09:18.198Z,11.25
2023-02-27T09:11:46.487Z,10.80
2023-02-27T09:14:14.976Z,16.13
2023-02-27T09:16:43.205Z,12.52
2023-02-27T09:19:14.410Z,10.48
2023-02-27T09:21:43.234Z,10.38
2023-02-27T09:24:19.925Z,10.60
2023-02-27T09:26:50.274Z,14.60
2023-02-27T09:29:19.372Z,13.20
2023-02-27T09:31:48.262Z,10.32
2023-02-27T09:34:17.124Z,9.40
2023-02-27T09:36:45.635Z,11.55
2023-02-27T09:39:14.267Z,9.07
2023-02-27T09:41:52.588Z,8.00
2023-02-27T09:44:46.714Z,9.68
2023-02-27T09:47:21.825Z,6.57
2023-02-27T09:50:01.120Z,9.60
2023-02-27T09:52:32.783Z,7.32
2023-02-27T09:57:44.036Z,10.82
2023-02-27T10:00:26.529Z,24.02
2023-02-27T10:05:55.854Z,14.77
2023-02-27T10:08:40.130Z,20.90
2023-02-27T10:11:15.507Z,15.00
2023-02-27T10:14:02.029Z,8.55
2023-02-27T10:16:34.351Z,6.70
2023-02-27T10:21:40.001Z,11.25
2023-02-27T10:24:24.327Z,10.95
2023-02-27T10:26:55.550Z,4.97
2023-02-27T10:29:40.004Z,5.82
2023-02-27T10:32:13.994Z,4.68
2023-02-27T10:34:44.506Z,10.02
2023-02-27T10:37:16.510Z,4.70
2023-02-27T10:39:49.979Z,4.97
2023-02-27T10:42:19.197Z,4.60
2023-02-27T10:44:53.654Z,5.78
2023-02-27T10:47:25.116Z,6.88
2023-02-27T10:50:23.573Z,4.25
2023-02-27T10:52:55.938Z,5.20
2023-02-27T10:58:05.173Z,7.30
2023-02-27T11:00:54.257Z,7.47
2023-02-27T11:03:41.097Z,7.28
2023-02-27T11:06:24.844Z,9.32
2023-02-27T11:09:25.033Z,6.07
2023-02-27T11:11:54.164Z,7.88
2023-02-27T11:14:28.131Z,1.95
2023-02-27T11:17:01.623Z,1.80
2023-02-27T11:19:36.933Z,1.23
2023-02-27T11:22:20.396Z,3.95
2023-02-27T11:24:49.493Z,3.00
2023-02-27T11:27:26.734Z,1.80
2023-02-27T11:30:22.661Z,4.95
2023-02-27T11:32:52.309Z,4.15
2023-02-27T11:35:30.328Z,3.30
2023-02-27T11:38:05.683Z,1.33
2023-02-27T11:40:39.810Z,3.20
2023-02-27T11:43:19.034Z,2.22
2023-02-27T11:46:04.777Z,5.47
2023-02-27T11:48:50.033Z,2.53
2023-02-27T11:51:33.234Z,4.13
2023-02-27T11:54:15.838Z,5.82
2023-02-27T11:56:54.122Z,4.38
2023-02-27T11:59:25.422Z,5.03
2023-02-27T12:02:01.867Z,5.35
2023-02-27T12:04:38.824Z,3.47
2023-02-27T12:07:54.439Z,4.47
2023-02-27T12:10:24.450Z,4.65
2023-02-27T12:13:04.356Z,6.88
2023-02-27T12:15:56.547Z,7.75
2023-02-27T12:18:31.879Z,8.57
2023-02-27T12:21:00.288Z,5.95
2023-02-27T12:23:46.187Z,6.80
2023-02-27T12:26:37.826Z,4.43
2023-02-27T12:29:25.658Z,7.40
2023-02-27T12:32:07.727Z,5.20
2023-02-27T12:34:46.682Z,7.45
2023-02-27T12:37:25.505Z,10.68
2023-02-27T12:39:58.582Z,11.65
2023-02-27T12:42:52.515Z,9.00
2023-02-27T12:45:34.178Z,6.45
2023-02-27T12:48:21.336Z,14.63
2023-02-27T12:51:03.584Z,8.18
2023-02-27T12:53:54.001Z,32.00
2023-02-27T12:56:29.536Z,13.43
2023-02-27T12:59:34.582Z,47.83
2023-02-27T13:02:33.914Z,7.60
2023-02-27T13:05:37.800Z,8.30
2023-02-27T13:08:14.439Z,5.63
2023-02-27T13:10:51.721Z,4.18
2023-02-27T13:13:31.813Z,5.30
2023-02-27T13:16:26.620Z,5.55
2023-02-27T13:18:59.571Z,3.30
2023-02-27T13:21:35.103Z,3.15
2023-02-27T13:24:26.308Z,2.90
2023-02-27T13:27:19.423Z,3.20
2023-02-27T13:30:03.792Z,3.28
2023-02-27T13:32:44.952Z,8.43
2023-02-27T13:35:38.646Z,3.92
2023-02-27T13:38:31.470Z,4.18
2023-02-27T13:41:21.808Z,7.32
2023-02-27T13:44:01.528Z,5.78
2023-02-27T13:46:34.258Z,4.82
2023-02-27T13:49:05.624Z,5.88
2023-02-27T13:51:47.770Z,7.50
2023-02-27T13:54:18.666Z,6.65
2023-02-27T13:56:59.648Z,7.32
2023-02-27T13:59:34.598Z,8.38
2023-02-27T14:02:12.648Z,8.15
2023-02-27T14:04:58.612Z,6.55
2023-02-27T14:07:32.075Z,14.63
2023-02-27T14:10:06.198Z,48.42
2023-02-27T14:12:45.939Z,27.20
2023-02-27T14:15:17.819Z,13.63
2023-02-27T14:17:50.908Z,10.25
2023-02-27T14:20:23.906Z,5.00
2023-02-27T14:23:22.308Z,4.40
2023-02-27T14:25:56.838Z,3.20
2023-02-27T14:28:43.884Z,5.88
2023-02-27T14:31:21.448Z,3.63
2023-02-27T14:33:55.973Z,5.30
2023-02-27T14:36:30.698Z,2.65
2023-02-27T14:39:00.942Z,4.78
2023-02-27T14:41:39.904Z,4.00
2023-02-27T14:44:19.153Z,5.88
2023-02-27T14:46:47.629Z,3.78
2023-02-27T14:49:29.806Z,3.30
2023-02-27T14:52:20.409Z,3.78
2023-02-27T14:54:51.982Z,2.92
2023-02-27T14:57:26.964Z,3.13
2023-02-27T14:59:56.048Z,4.32
2023-02-27T15:02:34.730Z,5.97
2023-02-27T15:05:03.633Z,4.82
2023-02-27T15:07:34.737Z,4.43
2023-02-27T15:10:06.291Z,6.65
2023-02-27T15:12:39.441Z,6.60
2023-02-27T15:15:15.157Z,6.78
2023-02-27T15:17:48.254Z,6.82
2023-02-27T15:20:32.266Z,3.95
2023-02-27T15:23:04.617Z,5.07
2023-02-27T15:25:39.390Z,3.25
2023-02-27T15:28:20.702Z,3.22
2023-02-27T15:30:52.653Z,3.20
2023-02-27T15:33:30.831Z,3.20
2023-02-27T15:36:00.633Z,8.27
2023-02-27T15:38:34.622Z,4.78
2023-02-27T15:41:04.337Z,5.43
2023-02-27T15:43:33.412Z,5.57
2023-02-27T15:46:02.408Z,6.03
2023-02-27T15:48:32.519Z,5.65
2023-02-27T15:51:03.659Z,5.05
2023-02-27T15:53:34.303Z,8.68
2023-02-27T15:56:12.272Z,7.07
2023-02-27T15:58:50.767Z,8.10
2023-02-27T16:01:27.003Z,6.72
2023-02-27T16:05:01.014Z,8.10
2023-02-27T16:10:46.512Z,14.13
2023-02-27T16:13:42.244Z,10.82
2023-02-27T16:16:39.058Z,8.75
2023-02-27T16:19:41.325Z,10.63
2023-02-27T16:22:20.558Z,15.52
2023-02-27T16:24:52.387Z,27.58
2023-02-27T16:27:29.363Z,27.48
2023-02-27T16:30:11.751Z,20.77
2023-02-27T16:32:44.966Z,25.85
2023-02-27T16:35:39.954Z,39.53
2023-02-27T16:38:36.433Z,31.98
2023-02-27T16:41:31.877Z,21.35
2023-02-27T16:45:16.570Z,34.47
2023-02-27T16:47:49.745Z,18.92
2023-02-27T16:50:46.010Z,21.42
2023-02-27T16:55:49.874Z,17.17
2023-02-27T16:58:19.047Z,14.88
2023-02-27T17:00:47.960Z,10.13
2023-02-27T17:03:16.705Z,9.38
2023-02-27T17:05:45.003Z,11.52
2023-02-27T17:08:13.617Z,13.05
2023-02-27T17:10:41.944Z,17.23
2023-02-27T17:13:10.513Z,17.85
2023-02-27T17:15:38.807Z,18.63
2023-02-27T17:18:09.420Z,16.95
2023-02-27T17:20:38.211Z,14.77
2023-02-27T17:23:10.108Z,17.25
2023-02-27T17:25:40.857Z,16.73
2023-02-27T17:28:09.708Z,13.77
2023-02-27T17:30:39.354Z,20.63
2023-02-27T17:33:08.000Z,16.88
2023-02-27T17:35:36.961Z,25.17
2023-02-27T17:38:07.427Z,18.70
2023-02-27T17:40:39.560Z,20.35
2023-02-27T17:43:08.260Z,24.40
2023-02-27T17:45:36.516Z,22.90
2023-02-27T17:48:05.381Z,23.55
2023-02-27T17:50:34.736Z,24.30
2023-02-27T17:53:03.468Z,21.50
2023-02-27T17:55:32.682Z,32.60
2023-02-27T17:58:01.721Z,63.72
2023-02-27T18:00:30.367Z,37.00
2023-02-27T18:02:59.141Z,45.47
2023-02-27T18:05:27.945Z,32.97
2023-02-27T18:07:56.550Z,40.78
2023-02-27T18:10:25.077Z,43.92
2023-02-27T18:12:53.701Z,51.33
2023-02-27T18:15:26.374Z,49.83
2023-02-27T18:21:12.700Z,50.22
2023-02-27T18:24:07.302Z,60.20
2023-02-27T18:27:05.552Z,58.40
2023-02-27T18:30:30.849Z,55.67
2023-02-27T18:33:11.721Z,61.30
2023-02-27T18:36:01.079Z,70.72
2023-02-27T18:38:34.138Z,68.03
2023-02-27T18:41:10.644Z,65.78
2023-02-27T19:46:09.553Z,44.90
2023-02-27T19:49:01.032Z,45.88
2023-02-27T19:51:30.734Z,48.40
2023-02-27T19:53:59.342Z,50.58
2023-02-27T19:56:30.698Z,53.55
2023-02-27T20:14:50.458Z,56.58
2023-02-27T20:17:21.538Z,66.53
2023-02-27T20:20:19.344Z,69.57
2023-02-27T20:32:54.425Z,52.88
2023-02-27T20:35:23.363Z,56.83
2023-02-27T20:37:53.314Z,56.88
2023-02-27T20:40:22.797Z,56.13
2023-02-27T20:42:51.495Z,49.40
2023-02-27T20:45:49.288Z,49.97
2023-02-27T20:52:01.470Z,47.45
2023-02-27T21:06:14.793Z,60.92
2023-02-27T21:20:44.554Z,77.85
2023-02-27T21:23:12.963Z,64.78
2023-02-27T21:25:43.862Z,58.10
2023-02-27T21:28:12.432Z,64.10
2023-02-27T21:30:41.755Z,62.47
2023-02-27T21:33:10.172Z,52.92
2023-02-27T21:36:03.854Z,64.30
2023-02-27T21:39:00.052Z,57.58
2023-02-27T21:41:54.874Z,53.83
2023-02-27T21:44:27.262Z,57.50
2023-02-27T21:46:56.181Z,55.40
2023-02-27T21:49:52.267Z,65.47
2023-02-27T21:52:45.773Z,61.25
2023-02-27T21:55:14.190Z,58.65
2023-02-27T21:58:12.101Z,62.40
2023-02-27T22:00:41.122Z,53.95
2023-02-27T22:03:10.434Z,51.00
2023-02-27T22:05:42.524Z,49.75
2023-02-27T22:08:11.292Z,48.08
2023-02-27T22:13:38.939Z,43.60
2023-02-27T22:16:10.261Z,42.80
2023-02-27T22:18:43.052Z,41.65
2023-02-27T22:21:16.352Z,41.50
2023-02-27T22:23:46.441Z,46.78
2023-02-27T22:26:36.497Z,51.90
2023-02-27T22:29:06.446Z,55.97
2023-02-27T22:31:37.132Z,50.13
2023-02-27T22:34:21.384Z,45.70
2023-02-27T22:36:53.066Z,52.47
2023-02-27T22:42:21.081Z,58.53
2023-02-27T22:44:49.868Z,56.40
2023-02-27T22:47:18.823Z,55.30
2023-02-27T22:50:15.230Z,59.70
2023-02-27T22:53:11.011Z,48.70
2023-02-27T22:56:09.126Z,49.63
2023-02-27T22:58:39.365Z,62.22
2023-02-27T23:01:29.829Z,67.63
2023-02-27T23:04:00.937Z,66.70
2023-02-27T23:06:41.170Z,59.03
2023-02-27T23:09:13.853Z,58.00
2023-02-27T23:11:42.706Z,49.45
2023-02-27T23:14:12.418Z,54.33
2023-02-27T23:16:45.989Z,62.72
2023-02-27T23:19:18.335Z,69.93
2023-02-27T23:21:47.138Z,53.25
2023-02-27T23:24:18.410Z,46.63
2023-02-27T23:26:54.063Z,51.03
2023-02-27T23:29:22.887Z,49.25
2023-02-27T23:31:51.274Z,49.38
2023-02-27T23:34:20.008Z,42.05
2023-02-27T23:36:48.432Z,41.22
2023-02-27T23:39:17.250Z,42.85
2023-02-27T23:41:45.857Z,42.60
2023-02-27T23:44:14.591Z,40.85
2023-02-27T23:46:42.898Z,45.95
2023-02-27T23:49:12.060Z,38.08
2023-02-27T23:51:40.689Z,31.98
2023-02-27T23:54:10.802Z,35.60
2023-02-27T23:56:39.235Z,36.15
2023-02-27T23:59:08.296Z,34.75
